createdAt,value
2022-10-10T00:01:56.102Z,13.20
2022-10-10T00:04:24.532Z,13.10
2022-10-10T00:06:54.641Z,13.10
2022-10-10T00:09:22.995Z,13.10
2022-10-10T00:11:51.240Z,13.10
2022-10-10T00:14:19.583Z,13.10
2022-10-10T00:16:47.912Z,13.00
2022-10-10T00:19:16.243Z,13.00
2022-10-10T00:21:44.589Z,13.00
2022-10-10T00:24:14.643Z,13.00
2022-10-10T00:26:42.987Z,13.00
2022-10-10T00:29:11.254Z,13.00
2022-10-10T00:31:39.977Z,13.00
2022-10-10T00:34:08.574Z,13.10
2022-10-10T00:39:20.984Z,13.00
2022-10-10T00:41:49.326Z,13.00
2022-10-10T00:44:18.108Z,13.10
2022-10-10T00:46:46.403Z,13.10
2022-10-10T00:49:18.123Z,13.10
2022-10-10T00:51:48.033Z,13.10
2022-10-10T00:54:19.052Z,13.00
2022-10-10T00:56:52.174Z,13.00
2022-10-10T00:59:22.086Z,13.00
2022-10-10T01:01:50.326Z,13.00
2022-10-10T01:04:33.861Z,13.10
2022-10-10T01:07:04.666Z,13.00
2022-10-10T01:09:34.197Z,13.00
2022-10-10T01:12:15.511Z,13.00
2022-10-10T01:14:51.498Z,13.10
2022-10-10T01:17:27.308Z,13.10
2022-10-10T01:20:27.543Z,13.10
2022-10-10T01:23:22.212Z,13.10
2022-10-10T01:26:02.403Z,13.20
2022-10-10T01:28:40.993Z,13.20
2022-10-10T01:31:11.805Z,13.20
2022-10-10T01:33:51.472Z,13.20
2022-10-10T01:36:26.575Z,13.30
2022-10-10T01:39:03.616Z,13.20
2022-10-10T01:41:34.801Z,13.20
2022-10-10T01:44:04.465Z,13.20
2022-10-10T01:46:33.772Z,13.30
2022-10-10T01:49:03.095Z,13.20
2022-10-10T01:51:50.410Z,13.30
2022-10-10T01:54:36.116Z,13.30
2022-10-10T01:57:19.648Z,13.30
2022-10-10T02:00:03.280Z,13.40
2022-10-10T02:02:41.810Z,13.40
2022-10-10T02:05:19.534Z,13.40
2022-10-10T02:07:53.894Z,13.50
2022-10-10T02:10:25.810Z,13.50
2022-10-10T02:12:56.990Z,13.50
2022-10-10T02:15:30.096Z,13.60
2022-10-10T02:17:59.026Z,13.60
2022-10-10T02:20:29.237Z,13.60
2022-10-10T02:22:57.795Z,13.60
2022-10-10T02:25:30.817Z,13.60
2022-10-10T02:28:08.555Z,13.60
2022-10-10T02:30:42.149Z,13.70
2022-10-10T02:33:10.613Z,13.70
2022-10-10T02:35:43.356Z,13.70
2022-10-10T02:38:15.603Z,13.70
2022-10-10T02:40:46.935Z,13.70
2022-10-10T02:43:17.527Z,13.70
2022-10-10T02:45:47.529Z,13.70
2022-10-10T02:48:15.833Z,13.70
2022-10-10T02:50:44.843Z,13.70
2022-10-10T02:53:13.101Z,13.70
2022-10-10T02:55:41.313Z,13.70
2022-10-10T02:58:10.438Z,13.80
2022-10-10T03:00:38.785Z,13.80
2022-10-10T03:03:10.308Z,13.80
2022-10-10T03:05:40.990Z,13.80
2022-10-10T03:08:11.783Z,13.80
2022-10-10T03:10:40.410Z,13.90
2022-10-10T03:13:08.980Z,13.90
2022-10-10T03:15:40.053Z,14.00
2022-10-10T03:18:10.156Z,14.00
2022-10-10T03:20:38.836Z,14.00
2022-10-10T03:23:07.376Z,14.00
2022-10-10T03:25:35.878Z,14.00
2022-10-10T03:28:04.238Z,14.00
2022-10-10T03:30:32.533Z,14.00
2022-10-10T03:33:00.909Z,14.00
2022-10-10T03:35:30.709Z,14.00
2022-10-10T03:37:59.625Z,14.00
2022-10-10T03:40:29.281Z,14.10
2022-10-10T03:42:58.251Z,14.00
2022-10-10T03:45:26.580Z,14.00
2022-10-10T03:47:54.775Z,14.10
2022-10-10T03:50:23.277Z,14.10
2022-10-10T03:52:53.173Z,14.10
2022-10-10T03:55:21.714Z,14.10
2022-10-10T03:57:49.978Z,14.10
2022-10-10T04:00:18.393Z,14.10
2022-10-10T04:02:46.827Z,14.10
2022-10-10T04:05:15.063Z,14.10
2022-10-10T04:07:43.333Z,14.10
2022-10-10T04:10:13.026Z,14.10
2022-10-10T04:12:41.322Z,14.10
2022-10-10T04:15:11.205Z,14.20
2022-10-10T04:17:41.292Z,14.20
2022-10-10T04:20:10.763Z,14.20
2022-10-10T04:22:39.135Z,14.20
2022-10-10T04:25:07.708Z,14.30
2022-10-10T04:27:39.740Z,14.30
2022-10-10T04:30:09.353Z,14.30
2022-10-10T04:32:38.162Z,14.30
2022-10-10T04:35:07.900Z,14.30
2022-10-10T04:37:39.649Z,14.30
2022-10-10T04:40:09.952Z,14.40
2022-10-10T04:42:40.087Z,14.40
2022-10-10T04:45:09.666Z,14.40
2022-10-10T04:47:38.030Z,14.40
2022-10-10T04:50:07.452Z,14.40
2022-10-10T04:52:35.977Z,14.40
2022-10-10T04:55:04.676Z,14.50
2022-10-10T04:57:33.175Z,14.50
2022-10-10T05:00:23.267Z,14.50
2022-10-10T05:02:51.956Z,14.50
2022-10-10T05:05:20.509Z,14.50
2022-10-10T05:08:13.640Z,14.50
2022-10-10T05:10:42.006Z,14.50
2022-10-10T05:13:25.154Z,14.50
2022-10-10T05:15:54.892Z,14.50
2022-10-10T05:18:23.474Z,14.60
2022-10-10T05:20:51.739Z,14.60
2022-10-10T05:23:20.378Z,14.60
2022-10-10T05:25:50.741Z,14.60
2022-10-10T05:28:19.216Z,14.60
2022-10-10T05:30:47.610Z,14.60
2022-10-10T05:33:19.825Z,14.70
2022-10-10T05:35:48.339Z,14.70
2022-10-10T05:38:16.636Z,14.70
2022-10-10T05:40:45.438Z,14.70
2022-10-10T05:43:13.808Z,14.70
2022-10-10T05:45:44.380Z,14.70
2022-10-10T05:48:32.295Z,14.70
2022-10-10T05:51:21.201Z,14.70
2022-10-10T05:54:13.006Z,14.70
2022-10-10T05:57:16.231Z,14.70
2022-10-10T06:00:30.235Z,14.70
2022-10-10T06:03:09.078Z,14.70
2022-10-10T06:05:53.759Z,14.70
2022-10-10T06:08:39.808Z,14.70
2022-10-10T06:11:12.195Z,14.70
2022-10-10T06:13:54.172Z,14.80
2022-10-10T06:16:41.332Z,14.70
2022-10-10T06:19:17.796Z,14.70
2022-10-10T06:22:01.383Z,14.70
2022-10-10T06:24:40.633Z,14.70
2022-10-10T06:27:31.802Z,14.70
2022-10-10T06:30:10.552Z,14.70
2022-10-10T06:37:02.017Z,14.70
2022-10-10T06:39:49.206Z,14.70
2022-10-10T06:42:47.576Z,14.70
2022-10-10T06:46:08.217Z,14.70
2022-10-10T06:48:34.769Z,14.80
2022-10-10T06:51:05.154Z,14.80
2022-10-10T06:53:34.885Z,14.80
2022-10-10T06:56:05.857Z,14.80
2022-10-10T06:58:34.961Z,14.90
2022-10-10T07:01:05.517Z,14.90
2022-10-10T07:03:35.307Z,14.90
2022-10-10T07:06:04.684Z,14.90
2022-10-10T07:08:34.642Z,14.90
2022-10-10T07:11:04.633Z,14.90
2022-10-10T07:13:34.666Z,14.90
2022-10-10T07:16:07.478Z,14.90
2022-10-10T07:19:10.071Z,14.90
2022-10-10T07:21:38.923Z,14.90
2022-10-10T07:24:15.538Z,15.00
2022-10-10T07:27:10.302Z,15.00
2022-10-10T07:29:47.834Z,15.10
2022-10-10T07:32:16.366Z,15.10
2022-10-10T07:34:46.893Z,15.20
2022-10-10T07:37:15.356Z,15.20
2022-10-10T07:39:43.750Z,15.30
2022-10-10T07:42:13.438Z,15.30
2022-10-10T07:44:41.746Z,15.40
2022-10-10T07:47:10.040Z,15.50
2022-10-10T07:49:38.408Z,15.50
2022-10-10T07:52:06.710Z,15.60
2022-10-10T07:54:35.126Z,15.60
2022-10-10T07:57:03.470Z,15.80
2022-10-10T07:59:33.206Z,15.90
2022-10-10T08:02:01.643Z,16.00
2022-10-10T08:04:30.126Z,16.00
2022-10-10T08:06:58.530Z,16.00
2022-10-10T08:09:26.975Z,16.10
2022-10-10T08:11:55.405Z,16.10
2022-10-10T08:14:24.037Z,16.20
2022-10-10T08:16:53.785Z,16.20
2022-10-10T08:19:22.122Z,16.20
2022-10-10T08:21:50.579Z,16.20
2022-10-10T08:24:19.760Z,16.30
2022-10-10T08:26:48.204Z,16.40
2022-10-10T08:29:16.828Z,16.50
2022-10-10T08:31:45.296Z,16.50
2022-10-10T08:34:15.050Z,16.60
2022-10-10T08:36:47.778Z,16.70
2022-10-10T08:39:18.246Z,16.80
2022-10-10T08:42:04.916Z,17.00
2022-10-10T08:44:40.545Z,17.20
2022-10-10T08:47:14.706Z,17.60
2022-10-10T08:49:47.399Z,18.20
2022-10-10T08:52:21.228Z,19.20
2022-10-10T08:55:04.905Z,19.90
2022-10-10T08:57:40.076Z,20.20
2022-10-10T09:00:16.716Z,20.50
2022-10-10T09:02:54.272Z,20.70
2022-10-10T09:05:36.958Z,20.40
2022-10-10T09:08:28.201Z,20.30
2022-10-10T09:10:59.609Z,20.00
2022-10-10T09:13:37.709Z,19.80
2022-10-10T09:16:13.349Z,19.60
2022-10-10T09:19:00.579Z,19.50
2022-10-10T09:21:45.750Z,19.40
2022-10-10T09:24:23.289Z,19.40
2022-10-10T09:27:01.481Z,19.50
2022-10-10T09:29:35.208Z,19.50
2022-10-10T09:32:11.357Z,19.50
2022-10-10T09:34:42.790Z,19.30
2022-10-10T09:37:29.524Z,19.20
2022-10-10T09:40:09.945Z,19.10
2022-10-10T09:42:41.267Z,19.00
2022-10-10T09:45:18.417Z,19.10
2022-10-10T09:47:48.173Z,19.10
2022-10-10T09:50:17.416Z,19.20
2022-10-10T09:52:48.261Z,19.30
2022-10-10T09:55:25.229Z,19.40
2022-10-10T09:57:55.128Z,19.50
2022-10-10T10:00:35.414Z,19.60
2022-10-10T10:03:27.976Z,19.60
2022-10-10T10:06:00.367Z,19.50
2022-10-10T10:08:42.777Z,19.50
2022-10-10T10:11:28.548Z,19.50
2022-10-10T10:13:59.730Z,19.50
2022-10-10T10:16:42.512Z,19.50
2022-10-10T10:19:35.625Z,19.50
2022-10-10T10:22:03.982Z,19.50
2022-10-10T10:24:36.542Z,19.40
2022-10-10T10:27:12.045Z,19.40
2022-10-10T10:29:47.245Z,19.50
2022-10-10T10:32:25.106Z,19.40
2022-10-10T10:35:16.321Z,19.40
2022-10-10T10:38:07.142Z,19.30
2022-10-10T10:40:41.758Z,19.20
2022-10-10T10:43:44.836Z,19.00
2022-10-10T10:46:24.359Z,18.80
2022-10-10T10:49:02.305Z,18.80
2022-10-10T10:52:03.839Z,18.80
2022-10-10T10:54:45.618Z,18.80
2022-10-10T10:57:32.856Z,18.90
2022-10-10T11:00:25.561Z,18.90
2022-10-10T11:05:15.937Z,18.90
2022-10-10T11:06:16.463Z,18.80
2022-10-10T11:08:59.048Z,18.80
2022-10-10T11:11:42.633Z,18.80
2022-10-10T11:14:24.538Z,18.80
2022-10-10T11:16:56.108Z,18.90
2022-10-10T11:19:32.944Z,18.90
2022-10-10T11:22:17.712Z,18.90
2022-10-10T11:24:51.260Z,18.90
2022-10-10T11:27:28.424Z,18.90
2022-10-10T11:30:07.372Z,18.90
2022-10-10T11:32:41.612Z,18.90
2022-10-10T11:35:22.964Z,19.10
2022-10-10T11:37:57.137Z,19.20
2022-10-10T11:40:34.602Z,19.30
2022-10-10T11:43:07.389Z,19.30
2022-10-10T11:45:47.223Z,19.50
2022-10-10T11:48:27.114Z,19.50
2022-10-10T11:51:00.698Z,19.60
2022-10-10T11:53:35.028Z,19.70
2022-10-10T11:56:13.721Z,19.80
2022-10-10T11:58:44.079Z,19.80
2022-10-10T12:01:20.540Z,20.00
2022-10-10T12:03:50.831Z,20.20
2022-10-10T12:06:23.547Z,20.30
2022-10-10T12:09:17.559Z,20.20
2022-10-10T12:11:50.805Z,20.20
2022-10-10T12:14:22.509Z,20.10
2022-10-10T12:16:53.023Z,20.00
2022-10-10T12:19:23.438Z,20.00
2022-10-10T12:21:56.579Z,20.00
2022-10-10T12:24:27.720Z,20.00
2022-10-10T12:27:29.695Z,20.00
2022-10-10T12:30:19.414Z,19.80
2022-10-10T12:32:59.405Z,19.60
2022-10-10T12:35:38.687Z,19.30
2022-10-10T12:38:18.941Z,19.10
2022-10-10T12:41:10.733Z,19.00
2022-10-10T12:43:59.366Z,18.90
2022-10-10T12:46:49.844Z,18.80
2022-10-10T12:49:25.165Z,18.80
2022-10-10T12:52:02.338Z,18.80
2022-10-10T12:54:35.122Z,18.80
2022-10-10T12:57:10.295Z,18.80
2022-10-10T12:59:39.928Z,18.80
2022-10-10T13:02:15.925Z,18.80
2022-10-10T13:04:47.525Z,18.80
2022-10-10T13:07:19.022Z,18.70
2022-10-10T13:09:51.318Z,18.70
2022-10-10T13:12:25.346Z,18.50
2022-10-10T13:14:53.774Z,18.40
2022-10-10T13:17:24.845Z,18.30
2022-10-10T13:19:56.274Z,18.20
2022-10-10T13:22:25.579Z,18.10
2022-10-10T13:24:54.477Z,18.00
2022-10-10T13:27:25.570Z,18.10
2022-10-10T13:29:55.039Z,18.00
2022-10-10T13:32:27.003Z,18.00
2022-10-10T13:35:00.123Z,18.10
2022-10-10T13:37:29.751Z,18.10
2022-10-10T13:39:58.646Z,18.20
2022-10-10T13:42:49.085Z,18.10
2022-10-10T13:45:36.446Z,18.20
2022-10-10T13:48:26.869Z,18.20
2022-10-10T13:51:14.970Z,18.20
2022-10-10T13:53:52.367Z,18.20
2022-10-10T13:56:38.395Z,18.30
2022-10-10T13:59:12.343Z,18.30
2022-10-10T14:01:42.711Z,18.40
2022-10-10T14:04:20.216Z,18.40
2022-10-10T14:06:59.687Z,18.40
2022-10-10T14:09:32.836Z,18.40
2022-10-10T14:12:03.637Z,18.40
2022-10-10T14:14:40.454Z,18.40
2022-10-10T14:17:11.007Z,18.40
2022-10-10T14:19:39.800Z,18.40
2022-10-10T14:22:09.569Z,18.40
2022-10-10T14:24:38.245Z,18.30
2022-10-10T14:27:16.095Z,18.30
2022-10-10T14:29:44.442Z,18.30
2022-10-10T14:32:13.913Z,18.20
2022-10-10T14:34:57.436Z,18.20
2022-10-10T14:37:28.878Z,18.10
2022-10-10T14:39:57.499Z,18.20
2022-10-10T14:42:26.927Z,18.20
2022-10-10T14:44:55.164Z,18.20
2022-10-10T14:47:25.543Z,18.30
2022-10-10T14:49:56.534Z,18.30
2022-10-10T14:52:26.227Z,18.30
2022-10-10T14:54:54.742Z,18.30
2022-10-10T14:57:23.255Z,18.30
2022-10-10T14:59:51.539Z,18.20
2022-10-10T15:02:21.740Z,18.20
2022-10-10T15:04:50.870Z,18.10
2022-10-10T15:07:20.019Z,18.00
2022-10-10T15:10:27.500Z,17.90
2022-10-10T15:12:41.541Z,17.90
2022-10-10T15:15:11.334Z,17.80
2022-10-10T15:17:39.774Z,17.80
2022-10-10T15:20:12.043Z,17.80
2022-10-10T15:22:40.723Z,17.80
2022-10-10T15:25:11.371Z,17.80
2022-10-10T15:30:22.252Z,17.80
2022-10-10T15:32:50.848Z,17.90
2022-10-10T15:35:21.723Z,17.90
2022-10-10T15:37:50.151Z,17.90
2022-10-10T15:40:22.505Z,17.90
2022-10-10T15:42:51.651Z,17.90
2022-10-10T15:45:43.683Z,17.90
2022-10-10T15:48:08.683Z,17.90
2022-10-10T15:50:42.214Z,18.00
2022-10-10T15:53:10.488Z,18.00
2022-10-10T15:55:43.766Z,18.00
2022-10-10T15:58:12.046Z,17.90
2022-10-10T16:00:41.502Z,17.90
2022-10-10T16:03:10.449Z,17.80
2022-10-10T16:05:42.927Z,17.80
2022-10-10T16:08:12.395Z,17.70
2022-10-10T16:10:41.909Z,17.70
2022-10-10T16:13:12.405Z,17.70
2022-10-10T16:15:40.715Z,17.70
2022-10-10T16:18:24.359Z,17.70
2022-10-10T16:20:52.695Z,17.60
2022-10-10T16:23:21.061Z,17.50
2022-10-10T16:25:49.319Z,17.50
2022-10-10T16:28:18.992Z,17.50
2022-10-10T16:30:47.293Z,17.50
2022-10-10T16:33:15.620Z,17.50
2022-10-10T16:35:44.409Z,17.50
2022-10-10T16:38:13.292Z,17.40
2022-10-10T16:40:41.578Z,17.40
2022-10-10T16:43:10.047Z,17.40
2022-10-10T16:45:44.522Z,17.40
2022-10-10T16:48:13.349Z,17.40
2022-10-10T16:50:42.552Z,17.40
2022-10-10T16:53:12.294Z,17.40
2022-10-10T16:55:41.399Z,17.40
2022-10-10T16:58:12.292Z,17.30
2022-10-10T17:00:46.994Z,17.30
2022-10-10T17:03:15.582Z,17.30
2022-10-10T17:05:44.412Z,17.30
2022-10-10T17:08:14.350Z,17.30
2022-10-10T17:10:47.346Z,17.20
2022-10-10T17:13:16.353Z,17.20
2022-10-10T17:16:34.134Z,17.20
2022-10-10T17:18:55.616Z,17.20
2022-10-10T17:21:25.773Z,17.10
2022-10-10T17:23:54.304Z,17.10
2022-10-10T17:26:23.978Z,17.00
2022-10-10T17:31:57.495Z,17.00
2022-10-10T17:34:25.894Z,16.90
2022-10-10T17:36:54.344Z,16.90
2022-10-10T17:39:22.989Z,16.90
2022-10-10T17:41:51.292Z,16.90
2022-10-10T17:44:19.793Z,16.80
2022-10-10T17:46:48.141Z,16.80
2022-10-10T17:49:18.371Z,16.80
2022-10-10T17:51:48.981Z,16.70
2022-10-10T17:54:21.594Z,16.70
2022-10-10T17:56:55.964Z,16.70
2022-10-10T17:59:24.347Z,16.60
2022-10-10T18:01:52.724Z,16.60
2022-10-10T18:04:22.379Z,16.50
2022-10-10T18:06:50.694Z,16.50
2022-10-10T18:09:19.130Z,16.40
2022-10-10T18:11:47.650Z,16.40
2022-10-10T18:14:15.995Z,16.40
2022-10-10T18:16:45.064Z,16.40
2022-10-10T18:19:13.422Z,16.40
2022-10-10T18:21:43.663Z,16.40
2022-10-10T18:24:12.485Z,16.40
2022-10-10T18:26:41.285Z,16.30
2022-10-10T18:29:09.676Z,16.30
2022-10-10T18:31:39.147Z,16.30
2022-10-10T18:34:08.443Z,16.20
2022-10-10T18:36:38.651Z,16.20
2022-10-10T18:39:23.287Z,16.20
2022-10-10T18:41:51.830Z,16.20
2022-10-10T18:44:21.163Z,16.20
2022-10-10T18:46:50.942Z,16.10
2022-10-10T18:49:19.545Z,16.10
2022-10-10T18:51:48.393Z,16.10
2022-10-10T18:54:18.705Z,16.00
2022-10-10T18:56:50.501Z,16.00
2022-10-10T18:59:21.897Z,16.00
2022-10-10T19:01:52.366Z,16.00
2022-10-10T19:04:22.059Z,15.90
2022-10-10T19:06:56.788Z,15.80
2022-10-10T19:09:26.810Z,15.80
2022-10-10T19:11:56.864Z,15.70
2022-10-10T19:14:25.404Z,15.70
2022-10-10T19:16:53.837Z,15.60
2022-10-10T19:19:22.753Z,15.60
2022-10-10T19:21:52.272Z,15.60
2022-10-10T19:24:22.379Z,15.60
2022-10-10T19:26:54.721Z,15.50
2022-10-10T19:29:25.484Z,15.50
2022-10-10T19:31:53.899Z,15.50
2022-10-10T19:34:22.529Z,15.40
2022-10-10T19:36:50.854Z,15.40
2022-10-10T19:39:19.483Z,15.40
2022-10-10T19:41:47.993Z,15.40
2022-10-10T19:44:16.243Z,15.40
2022-10-10T19:46:45.968Z,15.40
2022-10-10T19:49:14.759Z,15.40
2022-10-10T19:51:43.376Z,15.30
2022-10-10T19:54:12.134Z,15.30
2022-10-10T19:56:40.485Z,15.30
2022-10-10T19:59:09.148Z,15.20
2022-10-10T20:01:37.714Z,15.20
2022-10-10T20:04:09.445Z,15.20
2022-10-10T20:06:41.201Z,15.30
2022-10-10T20:09:10.954Z,15.30
2022-10-10T20:11:40.544Z,15.30
2022-10-10T20:14:08.874Z,15.20
2022-10-10T20:16:37.163Z,15.10
2022-10-10T20:19:06.818Z,15.10
2022-10-10T20:21:35.952Z,15.10
2022-10-10T20:24:06.914Z,15.00
2022-10-10T20:26:35.913Z,15.00
2022-10-10T20:29:05.113Z,15.00
2022-10-10T20:31:35.856Z,15.00
2022-10-10T20:34:05.944Z,15.00
2022-10-10T20:36:37.109Z,15.00
2022-10-10T20:39:08.076Z,14.90
2022-10-10T20:41:37.698Z,14.90
2022-10-10T20:44:08.119Z,14.90
2022-10-10T20:46:38.144Z,14.80
2022-10-10T20:49:09.333Z,14.80
2022-10-10T20:51:39.307Z,14.80
2022-10-10T20:54:08.263Z,14.80
2022-10-10T20:56:36.919Z,14.80
2022-10-10T20:59:05.188Z,14.80
2022-10-10T21:01:33.970Z,14.80
2022-10-10T21:04:03.282Z,14.70
2022-10-10T21:06:33.407Z,14.70
2022-10-10T21:09:06.089Z,14.70
2022-10-10T21:11:35.339Z,14.70
2022-10-10T21:14:04.116Z,14.60
2022-10-10T21:16:35.072Z,14.60
2022-10-10T21:19:03.919Z,14.60
2022-10-10T21:21:35.021Z,14.60
2022-10-10T21:24:07.289Z,14.60
2022-10-10T21:26:35.899Z,14.60
2022-10-10T21:29:04.493Z,14.60
2022-10-10T21:31:35.156Z,14.60
2022-10-10T21:34:04.918Z,14.50
2022-10-10T21:36:34.796Z,14.50
2022-10-10T21:39:06.836Z,14.50
2022-10-10T21:41:35.926Z,14.40
2022-10-10T21:44:04.496Z,14.40
2022-10-10T21:46:36.576Z,14.30
2022-10-10T21:49:07.966Z,14.30
2022-10-10T21:51:38.295Z,14.30
2022-10-10T21:54:08.640Z,14.20
2022-10-10T21:56:37.829Z,14.30
2022-10-10T21:59:06.728Z,14.20
2022-10-10T22:01:37.290Z,14.20
2022-10-10T22:04:07.031Z,14.20
2022-10-10T22:06:35.531Z,14.20
2022-10-10T22:09:04.685Z,14.10
2022-10-10T22:11:35.371Z,14.10
2022-10-10T22:14:04.364Z,14.10
2022-10-10T22:16:33.109Z,14.10
2022-10-10T22:19:02.085Z,14.00
2022-10-10T22:21:32.549Z,14.00
2022-10-10T22:24:02.571Z,14.00
2022-10-10T22:26:31.998Z,13.90
2022-10-10T22:29:01.881Z,13.90
2022-10-10T22:31:30.466Z,13.90
2022-10-10T22:33:59.098Z,13.80
2022-10-10T22:36:27.829Z,13.80
2022-10-10T22:38:56.194Z,13.80
2022-10-10T22:41:24.410Z,13.70
2022-10-10T22:43:53.471Z,13.70
2022-10-10T22:46:25.142Z,13.70
2022-10-10T22:48:53.831Z,13.70
2022-10-10T22:51:22.397Z,13.70
2022-10-10T22:53:50.750Z,13.60
2022-10-10T22:56:21.341Z,13.60
2022-10-10T22:58:51.434Z,13.40
2022-10-10T23:01:25.877Z,13.50
2022-10-10T23:04:13.230Z,13.40
2022-10-10T23:06:41.628Z,13.30
2022-10-10T23:09:14.095Z,13.30
2022-10-10T23:11:42.370Z,13.30
2022-10-10T23:14:10.691Z,13.20
2022-10-10T23:16:41.009Z,13.20
2022-10-10T23:19:09.268Z,13.20
2022-10-10T23:21:37.714Z,13.20
2022-10-10T23:24:06.837Z,13.20
2022-10-10T23:26:35.146Z,13.20
2022-10-10T23:29:03.730Z,13.10
2022-10-10T23:31:32.777Z,13.10
2022-10-10T23:34:02.642Z,13.10
2022-10-10T23:36:30.912Z,13.00
2022-10-10T23:38:59.320Z,13.00
2022-10-10T23:41:27.577Z,13.00
2022-10-10T23:43:55.796Z,13.00
2022-10-10T23:46:24.077Z,13.00
2022-10-10T23:48:52.628Z,13.00
2022-10-10T23:51:22.242Z,12.90
2022-10-10T23:53:50.473Z,12.90
2022-10-10T23:56:19.439Z,12.90
2022-10-10T23:58:48.120Z,12.90
